Time;durP1;ratioP1;P1;durP2;ratioP2;P2;SDS_P1;SDS_P2;PMS_P1;PMS_P2;Temp;Humidity;BMP_temperature;BMP_pressure;BME280_temperature;BME280_humidity;BME280_pressure;Samples;Min_cycle;Max_cycle;Signal;HPM_P1;HPM_P2
2022/05/12 00:00:38;;;;;;;1.63;0.60;;;15.60;99.90;;;;;;5022937;28;20618;-91
2022/05/12 00:03:09;;;;;;;2.97;0.70;;;15.60;99.90;;;;;;5021577;28;20213;-92
2022/05/12 00:05:42;;;;;;;2.83;0.70;;;15.70;99.90;;;;;;5022794;28;20212;-92
2022/05/12 00:08:14;;;;;;;2.40;0.50;;;15.80;99.90;;;;;;5021108;28;20216;-92
2022/05/12 00:10:48;;;;;;;2.30;0.50;;;15.90;99.90;;;;;;5021977;28;20213;-92
2022/05/12 00:13:19;;;;;;;1.93;0.50;;;15.80;99.90;;;;;;5026237;28;20205;-92
2022/05/12 00:15:52;;;;;;;1.57;0.53;;;15.60;99.90;;;;;;5033081;28;20252;-91
2022/05/12 00:18:24;;;;;;;1.17;0.50;;;15.70;99.90;;;;;;5021326;28;20213;-92
2022/05/12 00:20:56;;;;;;;2.17;0.70;;;15.60;99.90;;;;;;5020669;28;20211;-91
2022/05/12 00:23:30;;;;;;;1.07;0.50;;;15.70;99.90;;;;;;5020821;28;20205;-91
2022/05/12 00:26:06;;;;;;;1.23;0.57;;;15.60;99.90;;;;;;5020760;28;20643;-92
2022/05/12 00:28:38;;;;;;;0.90;0.63;;;15.40;99.90;;;;;;5018970;28;20252;-92
2022/05/12 00:31:09;;;;;;;2.20;0.60;;;15.30;99.90;;;;;;5020337;28;20581;-91
2022/05/12 00:33:42;;;;;;;1.20;0.70;;;15.00;99.90;;;;;;5019937;28;20209;-92
2022/05/12 00:36:15;;;;;;;2.47;0.60;;;14.90;99.90;;;;;;5020087;28;20280;-91
2022/05/12 00:38:46;;;;;;;0.80;0.50;;;15.00;99.90;;;;;;5020299;28;20205;-91
2022/05/12 00:41:19;;;;;;;0.50;0.50;;;15.00;99.90;;;;;;5019875;28;20209;-92
2022/05/12 00:43:52;;;;;;;2.40;0.60;;;15.10;99.90;;;;;;5019489;28;20288;-92
2022/05/12 00:46:27;;;;;;;0.50;0.50;;;15.00;99.90;;;;;;5019932;28;20224;-92
2022/05/12 00:49:03;;;;;;;1.20;0.60;;;15.00;99.90;;;;;;5018681;28;20213;-92
2022/05/12 00:51:38;;;;;;;1.13;0.60;;;15.10;99.90;;;;;;5020381;28;20209;-92
2022/05/12 00:54:15;;;;;;;1.83;0.50;;;15.00;99.90;;;;;;5020321;28;20268;-92
2022/05/12 00:56:53;;;;;;;0.93;0.50;;;14.90;99.90;;;;;;5019146;28;20213;-92
2022/05/12 00:59:30;;;;;;;1.67;0.70;;;14.70;99.90;;;;;;5020277;28;20221;-92
2022/05/12 01:02:05;;;;;;;4.33;0.60;;;14.50;99.90;;;;;;5020736;28;20296;-91
2022/05/12 01:04:38;;;;;;;0.97;0.50;;;14.50;99.90;;;;;;5019396;28;20671;-90
2022/05/12 01:07:10;;;;;;;0.50;0.30;;;14.50;99.90;;;;;;5019634;28;20210;-92
2022/05/12 01:09:43;;;;;;;1.00;0.60;;;14.10;99.90;;;;;;5019384;28;20201;-92
2022/05/12 01:12:17;;;;;;;1.60;0.50;;;14.00;99.90;;;;;;5019773;28;20732;-92
2022/05/12 01:14:50;;;;;;;0.30;0.30;;;14.00;99.90;;;;;;5021465;28;20224;-92
2022/05/12 01:17:23;;;;;;;2.10;0.50;;;14.10;99.90;;;;;;5022093;28;20202;-93
2022/05/12 01:19:54;;;;;;;1.53;0.60;;;14.30;99.90;;;;;;5019768;28;20210;-92
2022/05/12 01:22:40;;;;;;;1.30;0.33;;;14.60;99.90;;;;;;5020379;28;20220;-93
2022/05/12 01:25:16;;;;;;;0.73;0.40;;;15.10;99.90;;;;;;5019870;28;20662;-91
2022/05/12 01:27:47;;;;;;;0.77;0.50;;;14.80;99.90;;;;;;5018820;28;20201;-92
2022/05/12 01:30:21;;;;;;;1.73;0.47;;;14.90;99.90;;;;;;5019492;28;20618;-91
2022/05/12 01:32:54;;;;;;;0.73;0.43;;;15.00;99.90;;;;;;5023747;28;20213;-92
2022/05/12 01:35:27;;;;;;;1.13;0.40;;;15.60;99.90;;;;;;5030538;28;20256;-92
2022/05/12 01:37:58;;;;;;;0.93;0.40;;;15.60;99.90;;;;;;5021512;28;20213;-92
2022/05/12 01:40:31;;;;;;;0.90;0.67;;;15.50;99.90;;;;;;5019344;28;20205;-92
2022/05/12 01:43:04;;;;;;;0.57;0.53;;;15.20;99.90;;;;;;5019228;28;20650;-92
2022/05/12 01:48:13;;;;;;;2.67;0.70;;;15.10;99.90;;;;;;5413386;23;20247;-92
2022/05/12 01:50:52;;;;;;;2.20;0.60;;;14.80;99.90;;;;;;5032626;28;20216;-92
2022/05/12 01:53:30;;;;;;;1.10;0.53;;;14.60;99.90;;;;;;5033979;28;20234;-92
2022/05/12 01:56:06;;;;;;;1.77;0.73;;;14.50;99.90;;;;;;5030846;28;20316;-93
2022/05/12 01:58:38;;;;;;;1.07;0.67;;;14.20;99.90;;;;;;5026505;28;20201;-93
2022/05/12 02:01:11;;;;;;;2.23;0.70;;;14.00;99.90;;;;;;5005738;28;20720;-93
2022/05/12 02:03:42;;;;;;;2.80;0.63;;;13.70;99.90;;;;;;5030626;28;20240;-92
2022/05/12 02:06:16;;;;;;;1.57;0.90;;;13.70;99.90;;;;;;5035507;28;20189;-92
2022/05/12 02:08:53;;;;;;;1.93;0.70;;;13.60;99.90;;;;;;5036490;28;20217;-92
2022/05/12 02:11:32;;;;;;;1.93;0.60;;;13.30;99.90;;;;;;5036165;28;20189;-92
2022/05/12 02:19:24;;;;;;;0.93;0.60;;;13.30;99.90;;;;;;4995600;28;20328;-92
2022/05/12 02:21:56;;;;;;;2.60;0.87;;;13.20;99.90;;;;;;4997022;28;20199;-93
2022/05/12 02:24:29;;;;;;;1.50;0.80;;;13.00;99.90;;;;;;4997059;28;20183;-92
2022/05/12 02:32:21;;;;;;;3.23;0.97;;;13.00;99.90;;;;;;5035922;23;20310;-91
2022/05/12 02:34:52;;;;;;;2.50;0.67;;;12.70;99.90;;;;;;4981871;28;20197;-91
2022/05/12 02:37:25;;;;;;;1.43;0.60;;;12.70;99.90;;;;;;5014882;28;20249;-94
2022/05/12 02:42:41;;;;;;;3.97;1.07;;;12.50;99.90;;;;;;5011730;28;20237;-91
2022/05/12 02:45:15;;;;;;;1.67;0.73;;;12.50;99.90;;;;;;5007537;28;20214;-91
2022/05/12 02:47:56;;;;;;;2.87;0.70;;;12.30;99.90;;;;;;4980027;28;20293;-92
2022/05/12 02:50:29;;;;;;;2.10;1.00;;;12.20;99.90;;;;;;5012486;28;20222;-91
2022/05/12 02:53:01;;;;;;;2.13;0.90;;;12.30;99.90;;;;;;5011280;28;20210;-91
2022/05/12 02:55:36;;;;;;;0.90;0.80;;;12.20;99.90;;;;;;5012091;28;20252;-89
2022/05/12 02:58:07;;;;;;;2.73;0.80;;;12.20;99.90;;;;;;5012709;28;20210;-90
2022/05/12 03:00:42;;;;;;;1.63;0.70;;;12.20;99.90;;;;;;5014222;28;20210;-91
2022/05/12 03:03:16;;;;;;;2.20;0.83;;;12.20;99.90;;;;;;5016354;28;20206;-92
2022/05/12 03:05:49;;;;;;;3.40;1.07;;;12.10;99.90;;;;;;5009939;28;20209;-91
2022/05/12 03:08:23;;;;;;;2.57;0.80;;;12.00;99.90;;;;;;5002562;28;20214;-92
2022/05/12 03:10:56;;;;;;;3.17;0.73;;;12.10;99.90;;;;;;5014843;28;20209;-91
2022/05/12 03:13:31;;;;;;;2.70;0.77;;;12.00;99.90;;;;;;5013342;28;20213;-91
2022/05/12 03:16:03;;;;;;;1.53;1.00;;;11.90;99.90;;;;;;5014696;28;20213;-92
2022/05/12 03:18:39;;;;;;;2.90;0.70;;;11.80;99.90;;;;;;5012031;28;20202;-91
2022/05/12 03:21:11;;;;;;;2.57;0.70;;;11.70;99.90;;;;;;5010166;28;20215;-91
2022/05/12 03:23:43;;;;;;;2.43;0.67;;;11.60;99.90;;;;;;5003664;28;20214;-92
2022/05/12 03:26:16;;;;;;;2.00;0.60;;;11.40;99.90;;;;;;5002386;28;20647;-88
2022/05/12 03:28:48;;;;;;;2.93;0.90;;;11.30;99.90;;;;;;5000664;28;20775;-92
2022/05/12 03:31:19;;;;;;;1.43;0.70;;;11.10;99.90;;;;;;5001368;28;20694;-92
2022/05/12 03:33:53;;;;;;;2.70;0.87;;;11.00;99.90;;;;;;5004606;28;20206;-91
2022/05/12 03:36:25;;;;;;;4.93;1.00;;;10.90;99.90;;;;;;5013407;28;20245;-91
2022/05/12 03:38:58;;;;;;;3.00;0.93;;;11.00;99.90;;;;;;5014906;28;20207;-92
2022/05/12 03:41:30;;;;;;;0.93;0.83;;;10.90;99.90;;;;;;5011952;28;20213;-91
2022/05/12 03:46:57;;;;;;;4.73;0.97;;;10.90;99.90;;;;;;5017587;28;20203;-91
2022/05/12 03:52:23;;;;;;;3.73;1.00;;;10.70;99.90;;;;;;5010604;28;20241;-91
2022/05/12 03:54:55;;;;;;;2.03;0.80;;;10.60;99.90;;;;;;5011624;28;20217;-91
2022/05/12 03:57:32;;;;;;;5.23;1.00;;;10.50;99.90;;;;;;4996465;28;20218;-92
2022/05/12 04:00:06;;;;;;;2.97;0.93;;;10.20;99.90;;;;;;5007073;28;20265;-91
2022/05/12 04:02:38;;;;;;;3.30;1.10;;;10.00;99.90;;;;;;5003328;28;20237;-90
2022/05/12 04:05:13;;;;;;;4.30;1.07;;;9.90;99.90;;;;;;5006395;28;20206;-91
2022/05/12 04:07:51;;;;;;;4.17;1.30;;;9.80;99.90;;;;;;5011442;28;20202;-90
2022/05/12 04:10:24;;;;;;;1.90;0.83;;;9.70;99.90;;;;;;5015855;28;20190;-91
2022/05/12 04:12:56;;;;;;;3.87;1.00;;;9.70;99.90;;;;;;5009783;28;20213;-90
2022/05/12 04:15:28;;;;;;;2.43;1.13;;;9.60;99.90;;;;;;5009327;28;20229;-91
2022/05/12 04:18:03;;;;;;;6.27;1.10;;;9.40;99.90;;;;;;5007305;28;20324;-91
2022/05/12 04:20:37;;;;;;;5.73;1.20;;;9.30;99.90;;;;;;5008276;28;20237;-90
2022/05/12 04:23:10;;;;;;;3.47;1.20;;;9.20;99.90;;;;;;4999786;28;20236;-90
2022/05/12 04:25:41;;;;;;;5.20;1.23;;;9.30;99.90;;;;;;5017134;28;20202;-91
2022/05/12 04:28:15;;;;;;;3.20;0.97;;;9.20;99.90;;;;;;5012823;28;20218;-90
2022/05/12 04:30:47;;;;;;;2.77;0.90;;;9.10;99.90;;;;;;5006794;28;20218;-90
2022/05/12 04:36:10;;;;;;;4.40;1.10;;;9.00;99.90;;;;;;4986692;28;20218;-91
2022/05/12 04:38:42;;;;;;;2.90;0.90;;;8.90;99.90;;;;;;5002352;28;20236;-91
2022/05/12 04:41:13;;;;;;;1.53;0.90;;;8.90;99.90;;;;;;5002929;28;20215;-91
2022/05/12 04:43:45;;;;;;;2.63;0.97;;;8.90;99.90;;;;;;5003183;28;20214;-91
2022/05/12 04:46:17;;;;;;;2.53;1.00;;;8.90;99.90;;;;;;5013511;28;20198;-90
2022/05/12 04:48:49;;;;;;;4.27;1.20;;;8.90;99.90;;;;;;5013886;28;20281;-88
2022/05/12 04:51:24;;;;;;;3.97;1.20;;;8.80;99.90;;;;;;5012820;28;20333;-89
2022/05/12 04:54:00;;;;;;;2.77;1.70;;;8.80;99.90;;;;;;5001279;28;20269;-89
2022/05/12 04:56:32;;;;;;;3.63;1.30;;;8.80;99.90;;;;;;4999639;28;20622;-92
2022/05/12 04:59:07;;;;;;;5.30;1.10;;;8.80;99.90;;;;;;4999820;28;20689;-89
2022/05/12 05:01:38;;;;;;;3.03;1.07;;;8.80;99.90;;;;;;5000306;28;20234;-91
2022/05/12 05:04:10;;;;;;;3.43;1.23;;;8.80;99.90;;;;;;4982792;28;20283;-91
2022/05/12 05:06:43;;;;;;;3.50;1.10;;;8.80;99.90;;;;;;4999582;28;20202;-91
2022/05/12 05:09:15;;;;;;;2.53;1.20;;;8.80;99.90;;;;;;4981355;28;20233;-91
2022/05/12 05:11:47;;;;;;;1.97;1.10;;;8.70;99.90;;;;;;4999958;28;20253;-91
2022/05/12 05:14:20;;;;;;;2.80;1.20;;;8.80;99.90;;;;;;5000054;28;20214;-91
2022/05/12 05:16:52;;;;;;;6.97;1.27;;;8.80;99.90;;;;;;4999670;28;20226;-91
2022/05/12 05:19:23;;;;;;;4.73;1.10;;;8.80;99.90;;;;;;4999210;28;20525;-91
2022/05/12 05:21:56;;;;;;;1.50;0.93;;;8.80;99.90;;;;;;5002102;28;20218;-92
2022/05/12 05:24:29;;;;;;;3.53;1.20;;;8.70;99.90;;;;;;5003767;28;20570;-92
2022/05/12 05:27:06;;;;;;;4.90;1.40;;;8.70;99.90;;;;;;5006380;28;20260;-90
2022/05/12 05:29:42;;;;;;;4.83;1.67;;;8.70;99.90;;;;;;4998043;28;20202;-92
2022/05/12 05:32:13;;;;;;;6.53;1.90;;;8.70;99.90;;;;;;4999379;28;20213;-89
2022/05/12 05:34:45;;;;;;;3.53;1.00;;;8.70;99.90;;;;;;5005852;28;20230;-89
2022/05/12 05:37:21;;;;;;;4.10;1.60;;;8.70;99.90;;;;;;4998476;28;20226;-89
2022/05/12 05:39:52;;;;;;;4.40;1.60;;;8.70;99.90;;;;;;5001318;28;20198;-91
2022/05/12 05:42:24;;;;;;;2.80;1.30;;;8.70;99.90;;;;;;4999034;28;20235;-90
2022/05/12 05:44:56;;;;;;;4.37;1.47;;;8.60;99.90;;;;;;4998502;28;20214;-90
2022/05/12 05:50:29;;;;;;;3.70;1.63;;;8.60;99.90;;;;;;5011705;28;20219;-90
2022/05/12 05:55:58;;;;;;;2.07;1.10;;;8.70;99.90;;;;;;5011959;28;20209;-90
2022/05/12 05:58:32;;;;;;;2.07;1.07;;;8.60;99.90;;;;;;5008667;28;20225;-90
2022/05/12 06:01:03;;;;;;;3.50;1.40;;;8.60;99.90;;;;;;5007673;28;20210;-90
2022/05/12 06:03:35;;;;;;;3.50;1.10;;;8.60;99.90;;;;;;5000341;28;20209;-91
2022/05/12 06:06:07;;;;;;;2.60;1.20;;;8.60;99.90;;;;;;5008106;28;20229;-90
2022/05/12 06:13:56;;;;;;;4.57;1.20;;;8.50;99.90;;;;;;4999340;28;20232;-91
2022/05/12 06:16:28;;;;;;;5.73;1.30;;;8.50;99.90;;;;;;5000664;28;20670;-91
2022/05/12 06:18:59;;;;;;;5.57;1.50;;;8.60;99.90;;;;;;4996815;28;20268;-89
2022/05/12 06:21:30;;;;;;;3.93;1.43;;;8.50;99.90;;;;;;4998744;28;20218;-90
2022/05/12 06:24:02;;;;;;;5.67;1.27;;;8.60;99.90;;;;;;4997667;28;20273;-90
2022/05/12 06:26:34;;;;;;;3.43;1.37;;;8.70;99.90;;;;;;4999592;28;20289;-90
2022/05/12 06:29:08;;;;;;;3.37;1.00;;;8.80;99.90;;;;;;4981853;28;20658;-90
2022/05/12 06:31:41;;;;;;;2.20;1.20;;;8.80;99.90;;;;;;4998970;28;20206;-90
2022/05/12 06:34:12;;;;;;;3.53;1.30;;;8.80;99.90;;;;;;5020147;28;20194;-90
2022/05/12 06:36:45;;;;;;;6.97;2.07;;;8.90;99.90;;;;;;5019597;28;20206;-89
2022/05/12 06:39:17;;;;;;;2.57;1.17;;;8.90;99.90;;;;;;5009806;28;20252;-90
2022/05/12 06:41:48;;;;;;;2.03;1.10;;;9.00;99.90;;;;;;5003019;28;20210;-89
2022/05/12 06:44:21;;;;;;;2.53;1.10;;;8.90;99.90;;;;;;5003492;28;20242;-90
2022/05/12 06:46:53;;;;;;;1.93;1.10;;;8.90;99.90;;;;;;5002617;28;20221;-90
2022/05/12 06:49:25;;;;;;;2.03;1.40;;;8.90;99.90;;;;;;5001554;28;20220;-89
2022/05/12 06:51:57;;;;;;;3.23;1.17;;;8.90;99.90;;;;;;5001543;28;20264;-89
2022/05/12 06:54:29;;;;;;;4.30;1.60;;;8.90;99.90;;;;;;5001880;28;20276;-89
2022/05/12 06:57:01;;;;;;;3.27;1.20;;;8.80;99.90;;;;;;5001427;28;20210;-89
2022/05/12 06:59:39;;;;;;;3.33;1.40;;;8.80;99.90;;;;;;5000424;28;20706;-90
2022/05/12 07:02:11;;;;;;;2.80;1.20;;;8.70;99.90;;;;;;5001454;28;20229;-90
2022/05/12 07:04:45;;;;;;;4.57;1.10;;;8.80;99.90;;;;;;5001317;28;20207;-90
2022/05/12 07:07:16;;;;;;;4.23;1.20;;;8.70;99.90;;;;;;5005822;28;20206;-90
2022/05/12 07:09:52;;;;;;;1.77;1.30;;;8.70;99.90;;;;;;5003547;28;20220;-89
2022/05/12 07:12:26;;;;;;;2.90;1.20;;;8.80;99.90;;;;;;5003623;28;20245;-90
2022/05/12 07:14:59;;;;;;;2.83;1.33;;;8.90;99.90;;;;;;5000829;28;20214;-90
2022/05/12 07:17:37;;;;;;;3.60;1.47;;;8.90;99.90;;;;;;5001032;28;20260;-90
2022/05/12 07:28:36;;;;;;;2.83;1.27;;;8.90;99.90;;;;;;5001137;28;20260;-90
2022/05/12 07:31:10;;;;;;;2.43;0.90;;;8.90;99.90;;;;;;5000513;28;20261;-89
2022/05/12 07:33:43;;;;;;;3.80;1.23;;;8.80;99.90;;;;;;5001067;28;20232;-90
2022/05/12 07:36:16;;;;;;;1.63;1.07;;;8.80;99.90;;;;;;5002644;28;20289;-89
2022/05/12 07:38:48;;;;;;;1.90;0.90;;;8.80;99.90;;;;;;5000821;28;20234;-90
2022/05/12 07:41:21;;;;;;;2.73;1.27;;;8.80;99.90;;;;;;5000044;28;20225;-90
2022/05/12 07:43:53;;;;;;;3.43;1.03;;;8.80;99.90;;;;;;4999507;28;20206;-90
2022/05/12 07:46:28;;;;;;;2.77;1.17;;;8.80;99.90;;;;;;5000104;28;20309;-90
2022/05/12 07:49:01;;;;;;;2.73;1.00;;;8.70;99.90;;;;;;4999624;28;20295;-90
2022/05/12 07:51:32;;;;;;;1.93;0.80;;;8.70;99.90;;;;;;4999111;28;20293;-90
2022/05/12 07:54:03;;;;;;;2.90;1.00;;;8.70;99.90;;;;;;5000694;28;20202;-90
2022/05/12 07:56:34;;;;;;;2.00;1.13;;;8.70;99.90;;;;;;5000306;28;20214;-90
2022/05/12 07:59:05;;;;;;;2.43;1.40;;;8.80;99.90;;;;;;4999414;28;20290;-90
2022/05/12 08:01:39;;;;;;;1.73;0.80;;;8.70;99.90;;;;;;5002540;28;20214;-91
2022/05/12 08:04:11;;;;;;;4.30;1.20;;;8.70;99.90;;;;;;5001409;28;20217;-90
2022/05/12 08:06:43;;;;;;;2.67;1.07;;;8.70;99.90;;;;;;5006998;28;20257;-88
2022/05/12 08:09:15;;;;;;;0.73;0.70;;;8.60;99.90;;;;;;5001954;28;20207;-90
2022/05/12 08:11:47;;;;;;;2.57;0.90;;;8.60;99.90;;;;;;4999843;28;20240;-90
2022/05/12 08:14:18;;;;;;;2.23;0.87;;;8.50;99.90;;;;;;5000636;28;20214;-89
2022/05/12 08:16:52;;;;;;;1.63;0.80;;;8.40;99.90;;;;;;5003989;28;20668;-90
2022/05/12 08:19:24;;;;;;;2.30;0.83;;;8.40;99.90;;;;;;4997574;28;20230;-90
2022/05/12 08:21:55;;;;;;;3.33;0.90;;;8.50;99.90;;;;;;5000984;28;20296;-90
2022/05/12 08:24:26;;;;;;;1.27;0.70;;;8.40;99.90;;;;;;5000194;28;20269;-90
2022/05/12 08:26:57;;;;;;;1.63;0.80;;;8.40;99.90;;;;;;5000806;28;20210;-90
2022/05/12 08:29:30;;;;;;;2.77;0.90;;;8.40;99.90;;;;;;5000036;28;20210;-90
2022/05/12 08:32:03;;;;;;;1.43;0.90;;;8.40;99.90;;;;;;4999262;28;20265;-90
2022/05/12 08:34:34;;;;;;;1.00;0.80;;;8.50;99.90;;;;;;4999713;28;20202;-90
2022/05/12 08:37:06;;;;;;;1.10;0.90;;;8.30;99.90;;;;;;5003097;28;20259;-90
2022/05/12 08:39:38;;;;;;;2.13;0.77;;;8.30;99.90;;;;;;5000666;28;20234;-90
2022/05/12 08:42:17;;;;;;;1.43;0.77;;;8.30;99.90;;;;;;5006071;28;20210;-90
2022/05/12 08:44:49;;;;;;;3.53;0.80;;;8.30;99.90;;;;;;5004478;28;20285;-90
2022/05/12 08:47:34;;;;;;;1.70;1.00;;;8.30;99.90;;;;;;5000587;28;20280;-91
2022/05/12 08:50:09;;;;;;;2.17;0.83;;;8.30;99.90;;;;;;5005788;28;20236;-90
2022/05/12 08:52:48;;;;;;;2.03;0.73;;;8.30;99.90;;;;;;5014350;28;20347;-90
2022/05/12 08:55:25;;;;;;;3.03;0.90;;;8.30;99.90;;;;;;5015583;28;20198;-90
2022/05/12 08:57:59;;;;;;;0.93;0.80;;;8.40;99.90;;;;;;5003679;28;20293;-90
2022/05/12 09:00:35;;;;;;;2.07;1.00;;;8.40;99.90;;;;;;5001972;28;20233;-89
2022/05/12 09:03:15;;;;;;;1.47;0.60;;;8.30;99.90;;;;;;5001129;28;20291;-89
2022/05/12 09:06:02;;;;;;;1.90;0.90;;;8.30;99.90;;;;;;5003866;28;20241;-90
2022/05/12 09:08:40;;;;;;;1.07;0.80;;;8.30;99.90;;;;;;5003056;28;20586;-89
2022/05/12 09:11:19;;;;;;;1.00;0.60;;;8.30;99.90;;;;;;5001729;28;20225;-90
2022/05/12 09:13:52;;;;;;;1.87;0.70;;;8.30;99.90;;;;;;5002870;28;20222;-90
2022/05/12 09:16:26;;;;;;;3.20;1.30;;;8.30;99.90;;;;;;5002914;28;20210;-89
2022/05/12 09:19:02;;;;;;;1.63;0.83;;;8.30;99.90;;;;;;4999664;28;20236;-89
2022/05/12 09:21:36;;;;;;;1.07;0.70;;;8.30;99.90;;;;;;5001589;28;20264;-90
2022/05/12 09:24:09;;;;;;;3.13;0.83;;;8.40;99.90;;;;;;5015309;28;20221;-90
2022/05/12 09:26:46;;;;;;;5.57;0.80;;;8.40;99.90;;;;;;5017658;28;20321;-91
2022/05/12 09:29:24;;;;;;;1.40;0.73;;;8.20;99.90;;;;;;5014599;28;20634;-91
2022/05/12 09:31:57;;;;;;;1.30;0.97;;;8.30;99.90;;;;;;5015966;28;20216;-90
2022/05/12 09:34:33;;;;;;;3.00;0.70;;;8.20;99.90;;;;;;5007528;28;20218;-91
2022/05/12 09:37:28;;;;;;;1.47;0.80;;;8.20;99.90;;;;;;5004364;28;20216;-89
2022/05/12 09:40:14;;;;;;;2.87;0.70;;;8.20;99.90;;;;;;4999019;28;20427;-91
2022/05/12 09:42:47;;;;;;;0.90;0.60;;;8.20;99.90;;;;;;5000128;28;20213;-90
2022/05/12 09:45:29;;;;;;;1.67;0.80;;;8.10;99.90;;;;;;5000415;28;20293;-90
2022/05/12 09:48:22;;;;;;;1.60;0.80;;;8.10;99.90;;;;;;4999387;28;20264;-90
2022/05/12 09:51:15;;;;;;;1.07;0.73;;;8.20;99.90;;;;;;4999638;28;20293;-90
2022/05/12 09:53:46;;;;;;;3.17;0.83;;;8.30;99.90;;;;;;5000167;28;20214;-90
2022/05/12 09:56:31;;;;;;;1.77;0.83;;;8.30;99.90;;;;;;5000984;28;20245;-91
2022/05/12 09:59:11;;;;;;;1.40;0.80;;;8.30;99.90;;;;;;4998857;28;20213;-89
2022/05/12 10:01:54;;;;;;;0.83;0.80;;;8.30;99.90;;;;;;4999171;28;20212;-91
2022/05/12 10:10:18;;;;;;;1.83;0.70;;;8.30;99.90;;;;;;4999268;28;20206;-90
2022/05/12 10:12:56;;;;;;;2.20;0.80;;;8.30;99.90;;;;;;5015768;28;20213;-91
2022/05/12 10:15:33;;;;;;;2.20;0.80;;;8.30;99.90;;;;;;5004858;28;20198;-91
2022/05/12 10:18:10;;;;;;;1.90;0.90;;;8.30;99.90;;;;;;4999683;28;20222;-91
2022/05/12 10:20:46;;;;;;;1.90;0.83;;;8.30;99.90;;;;;;4998514;28;20612;-90
2022/05/12 10:23:26;;;;;;;1.50;0.83;;;8.40;99.90;;;;;;4998081;28;20249;-91
2022/05/12 10:26:04;;;;;;;2.67;0.80;;;8.40;99.90;;;;;;4998473;28;20623;-91
2022/05/12 10:28:51;;;;;;;2.03;0.80;;;8.40;99.90;;;;;;4997735;28;20317;-91
2022/05/12 10:31:29;;;;;;;2.00;1.00;;;8.40;99.90;;;;;;4998710;28;20267;-91
2022/05/12 10:34:18;;;;;;;1.83;0.80;;;8.40;99.90;;;;;;4999233;28;20273;-91
2022/05/12 10:37:01;;;;;;;1.73;0.80;;;8.40;99.90;;;;;;5000019;28;20210;-91
2022/05/12 10:39:49;;;;;;;1.80;0.80;;;8.40;99.90;;;;;;4999310;28;20262;-91
2022/05/12 10:42:38;;;;;;;2.40;0.87;;;8.30;99.90;;;;;;5000214;28;20216;-91
2022/05/12 10:45:26;;;;;;;2.10;0.80;;;8.40;99.90;;;;;;5003613;28;20210;-91
2022/05/12 10:48:27;;;;;;;2.43;0.67;;;8.40;99.90;;;;;;4998173;28;20214;-91
2022/05/12 10:51:01;;;;;;;0.77;0.70;;;8.40;99.90;;;;;;4990431;28;20267;-91
2022/05/12 10:53:51;;;;;;;2.70;0.80;;;8.40;99.90;;;;;;5001573;28;20197;-91
2022/05/12 10:56:34;;;;;;;1.37;0.53;;;8.40;99.90;;;;;;5000636;28;20252;-91
2022/05/12 10:59:40;;;;;;;1.13;0.50;;;8.40;99.90;;;;;;4998632;28;20225;-91
2022/05/12 11:02:17;;;;;;;1.60;0.80;;;8.40;99.90;;;;;;5005395;28;20229;-91
2022/05/12 11:04:53;;;;;;;2.73;0.80;;;8.50;99.90;;;;;;5016780;28;20224;-91
2022/05/12 11:07:32;;;;;;;0.83;0.57;;;8.40;99.90;;;;;;5016350;28;20194;-92
2022/05/12 11:10:24;;;;;;;1.90;0.70;;;8.50;99.90;;;;;;5014821;28;20214;-91
2022/05/12 11:13:01;;;;;;;0.77;0.50;;;8.40;99.90;;;;;;5015405;28;20765;-91
2022/05/12 11:15:41;;;;;;;0.60;0.60;;;8.40;99.90;;;;;;5014702;28;20214;-89
2022/05/12 11:18:22;;;;;;;2.40;0.57;;;8.30;99.90;;;;;;5015121;28;20202;-90
2022/05/12 11:21:02;;;;;;;0.47;0.47;;;8.40;99.90;;;;;;5018149;28;20232;-90
2022/05/12 11:23:57;;;;;;;1.03;0.60;;;8.40;99.90;;;;;;5001190;28;20233;-89
2022/05/12 11:26:51;;;;;;;2.20;0.80;;;8.40;99.90;;;;;;5017328;28;20225;-90
2022/05/12 11:29:44;;;;;;;1.40;0.40;;;8.50;99.90;;;;;;5015660;28;20217;-90
2022/05/12 11:32:40;;;;;;;2.30;1.20;;;8.50;99.90;;;;;;5016545;28;20221;-90
2022/05/12 11:35:14;;;;;;;0.97;0.60;;;8.50;99.90;;;;;;5014500;28;20222;-90
2022/05/12 11:37:58;;;;;;;1.40;0.60;;;8.40;99.90;;;;;;5015150;28;20225;-90
2022/05/12 11:40:55;;;;;;;1.13;0.60;;;8.50;99.90;;;;;;5016136;28;20249;-91
2022/05/12 11:47:01;;;;;;;1.83;0.90;;;8.40;99.90;;;;;;4990581;28;20213;-91
2022/05/12 11:49:57;;;;;;;0.90;0.70;;;8.40;99.90;;;;;;5008228;28;20206;-91
2022/05/12 11:52:40;;;;;;;3.53;1.20;;;8.40;99.90;;;;;;5006739;28;20737;-91
2022/05/12 11:55:25;;;;;;;1.07;0.53;;;8.30;99.90;;;;;;4986039;28;20210;-93
2022/05/12 11:58:09;;;;;;;0.70;0.50;;;8.40;99.90;;;;;;4987599;28;20238;-91
2022/05/12 12:01:00;;;;;;;1.37;0.70;;;8.40;99.90;;;;;;4986485;28;20239;-91
2022/05/12 12:03:58;;;;;;;1.37;0.60;;;8.30;99.90;;;;;;4984085;28;20210;-90
2022/05/12 12:06:52;;;;;;;0.60;0.53;;;8.30;99.90;;;;;;4982967;28;20252;-91
2022/05/12 12:09:51;;;;;;;0.87;0.50;;;8.40;99.90;;;;;;4992848;28;20683;-90
2022/05/12 12:13:00;;;;;;;0.87;0.50;;;8.40;99.90;;;;;;4982674;28;20219;-91
2022/05/12 12:16:02;;;;;;;0.60;0.60;;;8.30;99.90;;;;;;4942617;28;20238;-91
2022/05/12 12:19:09;;;;;;;0.50;0.50;;;8.30;99.90;;;;;;4984088;28;20234;-91
2022/05/12 12:22:24;;;;;;;0.50;0.40;;;8.30;99.90;;;;;;4982250;28;20269;-90
2022/05/12 12:25:22;;;;;;;0.97;0.60;;;8.30;99.90;;;;;;4999474;28;20233;-91
2022/05/12 12:28:25;;;;;;;1.77;0.50;;;8.20;99.90;;;;;;4997344;28;20210;-91
2022/05/12 12:31:08;;;;;;;1.13;0.60;;;8.30;99.90;;;;;;5001766;28;20259;-91
2022/05/12 12:33:59;;;;;;;0.40;0.40;;;8.30;99.90;;;;;;5005416;28;20218;-92
2022/05/12 12:37:05;;;;;;;1.03;0.50;;;8.30;99.90;;;;;;5001903;28;20237;-91
2022/05/12 12:39:47;;;;;;;2.30;0.80;;;8.30;99.90;;;;;;5001177;28;20225;-91
2022/05/12 12:42:50;;;;;;;1.63;0.63;;;8.20;99.90;;;;;;5001399;28;20248;-90
2022/05/12 12:45:26;;;;;;;1.47;0.70;;;8.20;99.90;;;;;;4996401;28;20215;-91
2022/05/12 12:48:00;;;;;;;0.63;0.57;;;8.30;99.90;;;;;;4981001;28;20207;-91
2022/05/12 12:50:42;;;;;;;1.33;0.50;;;8.30;99.90;;;;;;4985855;28;20210;-89
2022/05/12 12:53:16;;;;;;;0.80;0.70;;;8.20;99.90;;;;;;4981705;28;20211;-90
2022/05/12 12:58:44;;;;;;;1.47;0.90;;;8.30;99.90;;;;;;4981085;28;20207;-90
2022/05/12 13:01:19;;;;;;;1.53;0.60;;;8.30;99.90;;;;;;4998575;28;20231;-89
2022/05/12 13:03:56;;;;;;;1.73;0.70;;;8.40;99.90;;;;;;4982488;28;20625;-89
2022/05/12 13:06:30;;;;;;;2.73;0.80;;;8.40;99.90;;;;;;4981348;28;20270;-89
2022/05/12 13:09:05;;;;;;;1.90;0.67;;;8.40;99.90;;;;;;4995719;28;20206;-90
2022/05/12 13:11:39;;;;;;;1.40;0.70;;;8.30;99.90;;;;;;4980816;28;20218;-89
2022/05/12 13:14:19;;;;;;;0.70;0.50;;;8.30;99.90;;;;;;4985943;28;20211;-90
2022/05/12 13:16:51;;;;;;;1.07;0.53;;;8.30;99.90;;;;;;4996205;28;20203;-90
2022/05/12 13:19:30;;;;;;;0.60;0.60;;;8.30;99.90;;;;;;4995512;28;20246;-90
2022/05/12 13:22:03;;;;;;;1.73;0.93;;;8.30;99.90;;;;;;4986466;28;20658;-89
2022/05/12 13:24:36;;;;;;;2.53;1.40;;;8.30;99.90;;;;;;4981668;28;20210;-90
2022/05/12 13:27:11;;;;;;;0.80;0.80;;;8.30;99.90;;;;;;4981794;28;20231;-89
2022/05/12 13:29:45;;;;;;;1.20;0.73;;;8.20;99.90;;;;;;4981232;28;20210;-89
2022/05/12 13:32:34;;;;;;;0.97;0.60;;;8.20;99.90;;;;;;4983753;28;20264;-89
2022/05/12 13:35:17;;;;;;;1.33;0.80;;;8.20;99.90;;;;;;4984891;28;20361;-90
2022/05/12 13:37:54;;;;;;;2.97;0.80;;;8.20;99.90;;;;;;4988377;28;20269;-91
2022/05/12 13:40:52;;;;;;;1.30;0.50;;;8.20;99.90;;;;;;5003854;28;20237;-91
2022/05/12 13:43:28;;;;;;;1.80;0.70;;;8.20;99.90;;;;;;5002051;28;20238;-91
2022/05/12 13:46:26;;;;;;;0.50;0.50;;;8.20;99.90;;;;;;5003672;28;20237;-91
2022/05/12 13:49:00;;;;;;;1.07;0.60;;;8.30;99.90;;;;;;4999812;28;20278;-91
2022/05/12 13:51:50;;;;;;;0.83;0.60;;;8.30;99.90;;;;;;5006492;28;20220;-90
2022/05/12 13:54:38;;;;;;;0.40;0.40;;;8.30;99.90;;;;;;5016695;28;20212;-89
2022/05/12 13:57:23;;;;;;;0.40;0.40;;;8.40;99.90;;;;;;5016297;28;20202;-89
2022/05/12 13:59:57;;;;;;;1.00;0.67;;;8.50;99.90;;;;;;5014402;28;20210;-90
2022/05/12 14:02:35;;;;;;;0.63;0.50;;;8.50;99.90;;;;;;5011352;28;20253;-91
2022/05/12 14:05:12;;;;;;;0.67;0.50;;;8.60;99.90;;;;;;5010513;28;20228;-90
2022/05/12 14:07:46;;;;;;;0.50;0.40;;;8.70;99.90;;;;;;5011496;28;20224;-89
2022/05/12 14:10:28;;;;;;;1.70;0.47;;;8.60;99.90;;;;;;5013830;28;20213;-90
2022/05/12 14:21:57;;;;;;;1.83;0.50;;;8.70;99.90;;;;;;4940859;28;20235;-90
2022/05/12 14:24:31;;;;;;;4.63;0.77;;;8.90;99.90;;;;;;4974831;28;20222;-90
2022/05/12 14:27:02;;;;;;;1.43;0.40;;;9.00;99.90;;;;;;4979051;28;20210;-90
2022/05/12 14:29:34;;;;;;;0.50;0.40;;;9.00;99.90;;;;;;4979432;28;20210;-90
2022/05/12 14:32:11;;;;;;;0.80;0.50;;;8.90;99.90;;;;;;4990161;28;20226;-89
2022/05/12 14:34:52;;;;;;;0.50;0.40;;;9.00;99.90;;;;;;5011716;28;20210;-90
2022/05/12 14:37:24;;;;;;;0.90;0.43;;;8.90;99.90;;;;;;5012910;28;20190;-90
2022/05/12 14:39:58;;;;;;;0.40;0.37;;;9.10;99.90;;;;;;5014808;28;20206;-90
2022/05/12 14:42:31;;;;;;;0.50;0.50;;;9.20;99.90;;;;;;5017521;28;20249;-89
2022/05/12 14:45:03;;;;;;;0.30;0.30;;;9.10;99.90;;;;;;5017794;28;20238;-90
2022/05/12 14:47:35;;;;;;;0.63;0.40;;;9.30;99.90;;;;;;5015984;28;20193;-90
2022/05/12 14:50:09;;;;;;;1.43;0.50;;;9.30;99.90;;;;;;5016702;28;20198;-90